KHVS/HVS METAR and TAF weather

Enter ICAO airport designator
Station Type Date Time Source
KHVS METAR 2020/07/14 05:35 UTC NOAA

KHVS 140535Z AUTO 00000KT 10SM SCT044 22/21 A2993 RMK AO2


Station Type Date Time Source
KHVS Decoded METAR 2020/07/14 05:35 UTC NOAA

Station name not available
Jul 14, 2020 - 01:35 AM EDT / 2020.07.14 0535 UTC
Wind: Calm:0
Visibility: 10 mile(s):0
Sky conditions: partly cloudy
Temperature: 71 F (22 C)
Dew Point: 69 F (21 C)
Relative Humidity: 94%
Pressure (altimeter): 29.93 in. Hg (1013 hPa)
ob: KHVS 140535Z AUTO 00000KT 10SM SCT044 22/21 A2993 RMK AO2
cycle: 5

Station Type Date Time Source
KHVS TAF UTC NOAA

Error!

Example: see airport list